Time;durP1;ratioP1;P1;durP2;ratioP2;P2;SDS_P1;SDS_P2;PMS_P1;PMS_P2;Temp;Humidity;BMP_temperature;BMP_pressure;BME280_temperature;BME280_humidity;BME280_pressure;Samples;Min_cycle;Max_cycle;Signal;HPM_P1;HPM_P2
2023/09/24 00:00:10;;;;;;;;;;;24.10;68.60;;;;;;5103302;27;43064;-78
2023/09/24 00:02:38;;;;;;;;;;;24.00;67.70;;;;;;5102043;27;43039;-78
2023/09/24 00:05:07;;;;;;;;;;;22.90;65.40;;;;;;5084733;27;44385;-78
2023/09/24 00:07:33;;;;;;;;;;;24.10;65.70;;;;;;5102347;27;42954;-76
2023/09/24 00:10:00;;;;;;;;;;;24.00;68.20;;;;;;5100597;27;43243;-77
2023/09/24 00:12:27;;;;;;;;;;;24.00;68.60;;;;;;5103518;27;43361;-78
2023/09/24 00:14:52;;;;;;;;;;;24.00;68.70;;;;;;5102419;27;43603;-78
2023/09/24 00:17:18;;;;;;;;;;;24.00;69.00;;;;;;5103109;27;43488;-79
2023/09/24 00:19:45;;;;;;;;;;;23.90;68.10;;;;;;5103389;27;43184;-76
2023/09/24 00:22:11;;;;;;;;;;;23.90;68.10;;;;;;5103165;27;43020;-78
2023/09/24 00:24:38;;;;;;;;;;;24.10;68.70;;;;;;5103348;27;43118;-78
2023/09/24 00:27:03;;;;;;;;;;;23.60;67.90;;;;;;5105187;27;43003;-78
2023/09/24 00:29:29;;;;;;;;;;;23.90;68.60;;;;;;5106211;27;43661;-78
2023/09/24 00:31:55;;;;;;;;;;;24.00;68.70;;;;;;5106163;27;42983;-77
2023/09/24 00:34:21;;;;;;;;;;;24.00;68.30;;;;;;5106387;27;43055;-78
2023/09/24 00:36:50;;;;;;;;;;;24.00;68.40;;;;;;5105821;27;42867;-78
2023/09/24 00:39:16;;;;;;;;;;;24.00;68.40;;;;;;5106829;27;43664;-78
2023/09/24 00:41:42;;;;;;;;;;;23.90;68.90;;;;;;5106719;27;42894;-79
2023/09/24 00:44:09;;;;;;;;;;;24.00;68.30;;;;;;5105654;27;43003;-78
2023/09/24 00:46:34;;;;;;;;;;;24.00;68.90;;;;;;5107006;27;43194;-78
2023/09/24 00:49:00;;;;;;;;;;;23.90;69.40;;;;;;5106708;27;43564;-78
2023/09/24 00:51:27;;;;;;;;;;;24.00;69.00;;;;;;5105493;27;42982;-78
2023/09/24 00:53:53;;;;;;;;;;;24.00;69.20;;;;;;5105399;27;44910;-77
2023/09/24 00:56:20;;;;;;;;;;;23.90;68.80;;;;;;5106995;27;42981;-79
2023/09/24 00:58:47;;;;;;;;;;;24.00;69.00;;;;;;5104963;27;43618;-79
2023/09/24 01:01:13;;;;;;;;;;;23.90;68.90;;;;;;5106839;27;43065;-77
2023/09/24 01:03:40;;;;;;;;;;;24.10;69.00;;;;;;5106061;27;43514;-78
2023/09/24 01:06:06;;;;;;;;;;;24.00;68.30;;;;;;5105780;27;42925;-77
2023/09/24 01:08:33;;;;;;;;;;;24.00;68.80;;;;;;5105990;27;42960;-79
2023/09/24 01:10:59;;;;;;;;;;;24.10;68.20;;;;;;5087575;27;43059;-78
2023/09/24 01:13:24;;;;;;;;;;;24.20;68.90;;;;;;5106332;27;44597;-78
2023/09/24 01:15:50;;;;;;;;;;;23.90;68.50;;;;;;5105746;27;43034;-77
2023/09/24 01:18:17;;;;;;;;;;;24.00;68.80;;;;;;5105398;27;43023;-78
2023/09/24 01:20:43;;;;;;;;;;;24.20;68.40;;;;;;5105628;27;42920;-78
2023/09/24 01:23:12;;;;;;;;;;;24.10;68.20;;;;;;5105178;27;43796;-77
2023/09/24 01:25:40;;;;;;;;;;;24.10;66.30;;;;;;5100091;27;43069;-78
2023/09/24 01:28:07;;;;;;;;;;;24.00;68.30;;;;;;5106273;27;42807;-78
2023/09/24 01:30:33;;;;;;;;;;;24.00;68.90;;;;;;5105632;27;42889;-77
2023/09/24 01:32:59;;;;;;;;;;;24.20;69.10;;;;;;5106467;27;42983;-77
2023/09/24 01:35:28;;;;;;;;;;;24.10;68.90;;;;;;5106250;27;42894;-76
2023/09/24 01:38:06;;;;;;;;;;;23.90;68.80;;;;;;5103505;27;43551;-79
2023/09/24 01:40:33;;;;;;;;;;;24.00;68.70;;;;;;5103988;27;43021;-78
2023/09/24 01:43:00;;;;;;;;;;;24.00;69.30;;;;;;5104308;27;43019;-78
2023/09/24 01:45:26;;;;;;;;;;;24.00;68.90;;;;;;5105039;27;43250;-78
2023/09/24 01:47:52;;;;;;;;;;;24.10;69.50;;;;;;5105766;27;44507;-78
2023/09/24 01:50:18;;;;;;;;;;;23.80;69.10;;;;;;5105915;27;43012;-78
2023/09/24 01:52:45;;;;;;;;;;;23.90;69.10;;;;;;5104848;27;44216;-78
2023/09/24 01:55:13;;;;;;;;;;;24.00;70.00;;;;;;5105477;27;43538;-79
2023/09/24 01:57:40;;;;;;;;;;;24.00;69.40;;;;;;5105971;27;43809;-78
2023/09/24 02:00:11;;;;;;;;;;;23.90;69.40;;;;;;5104920;27;43151;-79
2023/09/24 02:02:39;;;;;;;;;;;24.30;68.60;;;;;;5091462;27;64180;-78
2023/09/24 02:05:10;;;;;;;;;;;23.90;69.40;;;;;;5105302;27;43373;-78
2023/09/24 02:07:38;;;;;;;;;;;24.00;68.90;;;;;;5104093;27;43074;-78
2023/09/24 02:10:05;;;;;;;;;;;23.90;69.50;;;;;;5105565;27;43052;-78
2023/09/24 02:12:37;;;;;;;;;;;24.20;69.20;;;;;;5085032;27;43527;-78
2023/09/24 02:15:11;;;;;;;;;;;24.00;67.10;;;;;;5100505;27;43041;-78
2023/09/24 02:17:40;;;;;;;;;;;24.20;69.40;;;;;;5105300;27;43153;-78
2023/09/24 02:20:25;;;;;;;;;;;24.00;69.50;;;;;;5104409;27;43070;-78
2023/09/24 02:22:52;;;;;;;;;;;23.90;68.80;;;;;;5105144;27;43569;-78
2023/09/24 02:25:18;;;;;;;;;;;24.00;69.40;;;;;;5096849;27;42961;-78
2023/09/24 02:27:44;;;;;;;;;;;24.00;70.00;;;;;;5104725;27;43803;-78
2023/09/24 02:30:11;;;;;;;;;;;23.80;69.70;;;;;;5104261;27;42980;-79
2023/09/24 02:32:43;;;;;;;;;;;23.90;69.10;;;;;;5104036;27;43740;-78
2023/09/24 02:35:11;;;;;;;;;;;24.00;67.50;;;;;;5102821;27;42987;-79
2023/09/24 02:37:44;;;;;;;;;;;22.70;69.00;;;;;;5103831;27;42923;-78
2023/09/24 02:40:30;;;;;;;;;;;23.70;67.40;;;;;;5105222;27;42953;-78
2023/09/24 02:42:57;;;;;;;;;;;24.00;69.50;;;;;;5104392;27;44143;-78
2023/09/24 02:45:23;;;;;;;;;;;24.00;69.90;;;;;;5103685;27;43080;-78
2023/09/24 02:47:49;;;;;;;;;;;24.00;69.80;;;;;;5103600;27;43014;-78
2023/09/24 02:50:17;;;;;;;;;;;23.90;69.90;;;;;;5104334;27;42964;-79
2023/09/24 02:52:44;;;;;;;;;;;24.00;70.00;;;;;;5104449;27;43370;-77
2023/09/24 02:55:15;;;;;;;;;;;24.30;70.20;;;;;;5104443;27;43043;-78
2023/09/24 02:57:41;;;;;;;;;;;24.00;70.20;;;;;;5103660;27;42968;-78
2023/09/24 03:00:17;;;;;;;;;;;24.20;70.20;;;;;;5104848;27;43013;-78
2023/09/24 03:02:43;;;;;;;;;;;23.80;67.70;;;;;;5091620;27;43541;-79
2023/09/24 03:05:11;;;;;;;;;;;23.90;70.20;;;;;;5104603;27;42890;-78
2023/09/24 03:07:44;;;;;;;;;;;24.10;70.20;;;;;;5104237;27;43175;-79
2023/09/24 03:10:10;;;;;;;;;;;23.90;70.30;;;;;;5104653;27;42802;-78
2023/09/24 03:12:36;;;;;;;;;;;23.90;70.00;;;;;;5104431;27;42821;-78
2023/09/24 03:15:02;;;;;;;;;;;24.00;70.40;;;;;;5104372;27;43070;-78
2023/09/24 03:17:28;;;;;;;;;;;23.30;69.40;;;;;;5104653;27;43430;-78
2023/09/24 03:19:54;;;;;;;;;;;24.00;70.20;;;;;;5103517;27;42928;-79
2023/09/24 03:22:21;;;;;;;;;;;23.90;70.10;;;;;;5104413;27;42878;-78
2023/09/24 03:24:47;;;;;;;;;;;24.00;69.80;;;;;;5102411;27;43172;-78
2023/09/24 03:27:13;;;;;;;;;;;23.90;69.90;;;;;;5103799;27;43000;-78
2023/09/24 03:29:39;;;;;;;;;;;23.90;70.50;;;;;;5101727;27;43510;-78
2023/09/24 03:32:04;;;;;;;;;;;24.00;70.20;;;;;;5102833;27;42873;-78
2023/09/24 03:34:30;;;;;;;;;;;23.90;70.30;;;;;;5102863;27;43842;-79
2023/09/24 03:36:55;;;;;;;;;;;23.90;69.80;;;;;;5103957;27;43510;-79
2023/09/24 03:39:21;;;;;;;;;;;24.00;70.00;;;;;;5104396;27;42835;-78
2023/09/24 03:41:46;;;;;;;;;;;23.70;70.50;;;;;;5103471;27;43022;-78
2023/09/24 03:44:12;;;;;;;;;;;24.10;70.50;;;;;;5102409;27;43028;-79
2023/09/24 03:46:38;;;;;;;;;;;23.80;70.00;;;;;;5103679;27;43369;-78
2023/09/24 03:49:03;;;;;;;;;;;23.90;70.20;;;;;;5092871;27;43028;-78
2023/09/24 03:51:29;;;;;;;;;;;24.00;70.00;;;;;;5096526;27;44083;-77
2023/09/24 03:53:54;;;;;;;;;;;23.90;69.90;;;;;;5104307;27;43147;-77
2023/09/24 03:56:20;;;;;;;;;;;23.90;70.00;;;;;;5102309;27;43034;-77
2023/09/24 03:58:47;;;;;;;;;;;23.90;70.20;;;;;;5094062;27;43043;-77
2023/09/24 04:01:12;;;;;;;;;;;24.00;69.80;;;;;;5105323;27;43733;-77
2023/09/24 04:03:38;;;;;;;;;;;23.90;70.30;;;;;;5103224;27;42996;-76
2023/09/24 04:06:09;;;;;;;;;;;23.80;70.10;;;;;;5106743;27;43505;-76
2023/09/24 04:08:35;;;;;;;;;;;23.90;67.90;;;;;;5106995;27;42979;-78
2023/09/24 04:11:00;;;;;;;;;;;24.00;70.50;;;;;;5105458;27;43382;-78
2023/09/24 04:13:26;;;;;;;;;;;23.80;70.20;;;;;;5095378;27;43048;-77
2023/09/24 04:15:52;;;;;;;;;;;24.50;70.10;;;;;;5105562;27;43068;-78
2023/09/24 04:18:18;;;;;;;;;;;23.90;69.80;;;;;;5104746;27;43187;-76
2023/09/24 04:20:43;;;;;;;;;;;23.90;70.20;;;;;;5106797;27;43021;-76
2023/09/24 04:23:11;;;;;;;;;;;23.90;70.10;;;;;;5105222;27;43011;-78
2023/09/24 04:25:37;;;;;;;;;;;23.90;70.00;;;;;;5107018;27;43063;-76
2023/09/24 04:28:02;;;;;;;;;;;23.80;70.00;;;;;;5105657;27;42985;-76
2023/09/24 04:30:28;;;;;;;;;;;23.90;69.60;;;;;;5107029;27;43053;-77
2023/09/24 04:32:54;;;;;;;;;;;23.80;70.00;;;;;;5103988;27;43048;-77
2023/09/24 04:35:20;;;;;;;;;;;23.90;70.10;;;;;;5104633;27;43565;-76
2023/09/24 04:37:49;;;;;;;;;;;23.90;70.00;;;;;;5103580;27;44088;-76
2023/09/24 04:40:15;;;;;;;;;;;23.90;67.50;;;;;;5106793;27;43572;-77
2023/09/24 04:42:41;;;;;;;;;;;23.90;69.90;;;;;;5096862;27;43044;-75
2023/09/24 04:45:08;;;;;;;;;;;23.90;69.90;;;;;;5103509;27;43419;-76
2023/09/24 04:47:34;;;;;;;;;;;23.70;69.20;;;;;;5104645;27;43226;-76
2023/09/24 04:49:59;;;;;;;;;;;23.90;69.60;;;;;;5100998;27;43066;-76
2023/09/24 04:52:25;;;;;;;;;;;23.90;69.60;;;;;;5104638;27;42976;-78
2023/09/24 04:54:52;;;;;;;;;;;23.70;69.60;;;;;;5106223;27;43627;-77
2023/09/24 04:57:18;;;;;;;;;;;23.80;69.10;;;;;;5103772;27;42965;-77
2023/09/24 04:59:43;;;;;;;;;;;23.80;69.40;;;;;;5105987;27;43364;-77
2023/09/24 05:02:09;;;;;;;;;;;23.80;68.90;;;;;;5103916;27;43127;-77
2023/09/24 05:04:35;;;;;;;;;;;23.70;69.30;;;;;;5104833;27;44388;-77
2023/09/24 05:07:01;;;;;;;;;;;23.80;69.00;;;;;;5106329;27;42996;-78
2023/09/24 05:09:26;;;;;;;;;;;23.70;69.20;;;;;;5106412;27;43275;-79
2023/09/24 05:11:52;;;;;;;;;;;23.80;69.10;;;;;;5099641;27;43019;-78
2023/09/24 05:14:18;;;;;;;;;;;23.70;69.20;;;;;;5106047;27;43613;-76
2023/09/24 05:16:43;;;;;;;;;;;23.90;68.60;;;;;;5106405;27;42991;-76
2023/09/24 05:19:09;;;;;;;;;;;23.80;68.60;;;;;;5105843;27;43756;-78
2023/09/24 05:21:35;;;;;;;;;;;23.90;69.10;;;;;;5097527;27;43106;-78
2023/09/24 05:24:03;;;;;;;;;;;23.50;68.30;;;;;;5098364;27;43032;-78
2023/09/24 05:26:28;;;;;;;;;;;23.70;68.30;;;;;;5104362;27;43294;-76
2023/09/24 05:28:54;;;;;;;;;;;23.80;68.80;;;;;;5102425;27;43590;-78
2023/09/24 05:31:20;;;;;;;;;;;23.70;68.70;;;;;;5099162;27;42949;-78
2023/09/24 05:33:47;;;;;;;;;;;23.80;68.60;;;;;;5098607;27;43200;-79
2023/09/24 05:36:13;;;;;;;;;;;23.70;68.60;;;;;;5105386;27;42951;-77
2023/09/24 05:38:38;;;;;;;;;;;23.60;67.90;;;;;;5105464;27;43421;-77
2023/09/24 05:41:05;;;;;;;;;;;23.30;68.30;;;;;;5103983;27;43005;-76
2023/09/24 05:43:31;;;;;;;;;;;23.70;68.00;;;;;;5105171;27;42984;-76
2023/09/24 05:45:56;;;;;;;;;;;23.70;68.00;;;;;;5104072;27;43027;-76
2023/09/24 05:48:22;;;;;;;;;;;23.70;68.50;;;;;;5102651;27;45025;-76
2023/09/24 05:50:47;;;;;;;;;;;24.00;68.20;;;;;;5103301;27;43058;-77
2023/09/24 05:53:13;;;;;;;;;;;23.80;68.60;;;;;;5103173;27;43729;-77
2023/09/24 05:55:39;;;;;;;;;;;23.90;68.40;;;;;;5103825;27;42941;-78
2023/09/24 05:58:07;;;;;;;;;;;23.80;68.20;;;;;;5105777;27;43340;-76
2023/09/24 06:00:37;;;;;;;;;;;23.90;66.10;;;;;;5105576;27;43246;-77
2023/09/24 06:03:03;;;;;;;;;;;23.90;66.00;;;;;;5102310;27;42957;-77
2023/09/24 06:05:29;;;;;;;;;;;24.00;67.90;;;;;;5102523;27;42936;-75
2023/09/24 06:07:55;;;;;;;;;;;23.90;67.80;;;;;;5104784;27;43969;-76
2023/09/24 06:10:21;;;;;;;;;;;23.90;67.90;;;;;;5104283;27;43211;-77
2023/09/24 06:12:46;;;;;;;;;;;23.40;67.50;;;;;;5099711;27;43029;-77
2023/09/24 06:15:13;;;;;;;;;;;23.90;68.20;;;;;;5105196;27;43006;-76
2023/09/24 06:17:39;;;;;;;;;;;23.90;67.50;;;;;;5103275;27;43061;-76
2023/09/24 06:20:05;;;;;;;;;;;23.90;67.90;;;;;;5104359;27;42998;-77
2023/09/24 06:22:31;;;;;;;;;;;24.40;67.10;;;;;;5102445;27;43535;-77
2023/09/24 06:24:57;;;;;;;;;;;23.80;68.10;;;;;;5103009;27;43214;-77
2023/09/24 06:27:23;;;;;;;;;;;23.80;68.50;;;;;;5104894;27;43501;-77
2023/09/24 06:29:48;;;;;;;;;;;23.90;68.40;;;;;;5101702;27;42912;-77
2023/09/24 06:32:14;;;;;;;;;;;23.60;68.20;;;;;;5097642;27;43716;-76
2023/09/24 06:34:39;;;;;;;;;;;23.80;67.80;;;;;;5083348;27;42961;-76
2023/09/24 06:37:05;;;;;;;;;;;23.90;68.30;;;;;;5105850;27;43376;-76
2023/09/24 06:39:31;;;;;;;;;;;23.80;67.70;;;;;;5105892;27;42918;-76
2023/09/24 06:41:57;;;;;;;;;;;23.80;68.10;;;;;;5102647;27;42984;-78
2023/09/24 06:44:23;;;;;;;;;;;23.80;67.70;;;;;;5104690;27;43126;-75
2023/09/24 06:46:49;;;;;;;;;;;23.90;68.50;;;;;;5103908;27;42882;-76
2023/09/24 06:49:14;;;;;;;;;;;23.90;68.40;;;;;;5104705;27;43084;-75
2023/09/24 06:51:40;;;;;;;;;;;23.90;69.10;;;;;;5100826;27;43605;-76
2023/09/24 06:54:05;;;;;;;;;;;23.50;69.10;;;;;;5102931;27;43078;-77
2023/09/24 06:56:31;;;;;;;;;;;23.80;69.60;;;;;;5103739;27;43696;-78
2023/09/24 06:58:56;;;;;;;;;;;23.70;69.50;;;;;;5101596;27;42951;-75
2023/09/24 07:01:22;;;;;;;;;;;23.70;69.30;;;;;;5097064;27;43700;-76
2023/09/24 07:03:48;;;;;;;;;;;23.70;69.40;;;;;;5094213;27;43082;-75
2023/09/24 07:06:15;;;;;;;;;;;23.80;69.80;;;;;;5092840;27;43177;-76
2023/09/24 07:08:40;;;;;;;;;;;23.80;69.90;;;;;;5098995;27;42927;-75
2023/09/24 07:11:21;;;;;;;;;;;23.60;69.60;;;;;;5095331;27;43672;-77
2023/09/24 07:13:47;;;;;;;;;;;23.60;68.00;;;;;;5100756;27;43235;-77
2023/09/24 07:16:13;;;;;;;;;;;23.80;69.90;;;;;;5104837;27;42862;-78
2023/09/24 07:18:39;;;;;;;;;;;23.70;69.40;;;;;;5104807;27;42920;-78
2023/09/24 07:21:05;;;;;;;;;;;23.70;69.80;;;;;;5104004;27;42998;-77
2023/09/24 07:23:30;;;;;;;;;;;24.10;69.70;;;;;;5093129;27;43066;-78
2023/09/24 07:25:56;;;;;;;;;;;23.80;69.80;;;;;;5104638;27;43087;-79
2023/09/24 07:28:24;;;;;;;;;;;23.80;70.40;;;;;;5104557;27;42878;-79
2023/09/24 07:30:50;;;;;;;;;;;23.80;69.80;;;;;;5099737;27;43547;-79
2023/09/24 07:33:16;;;;;;;;;;;23.80;69.90;;;;;;5101902;27;43042;-77
2023/09/24 07:35:41;;;;;;;;;;;23.70;69.50;;;;;;5102421;27;43002;-88
2023/09/24 07:38:07;;;;;;;;;;;23.80;69.40;;;;;;5086091;27;43012;-90
2023/09/24 07:40:32;;;;;;;;;;;23.80;66.20;;;;;;5103057;27;43537;-80
2023/09/24 07:42:58;;;;;;;;;;;23.70;64.50;;;;;;5103485;27;43062;-80
2023/09/24 07:45:23;;;;;;;;;;;23.80;65.10;;;;;;5104333;27;43805;-82
2023/09/24 07:47:49;;;;;;;;;;;23.50;64.00;;;;;;5103941;27;42954;-80
2023/09/24 07:50:14;;;;;;;;;;;23.70;64.40;;;;;;5104173;27;43574;-80
2023/09/24 07:52:40;;;;;;;;;;;23.70;63.00;;;;;;5099341;27;43071;-79
2023/09/24 07:55:06;;;;;;;;;;;23.60;62.50;;;;;;5098316;27;42885;-80
2023/09/24 07:57:32;;;;;;;;;;;23.60;61.90;;;;;;5097846;27;42874;-85
2023/09/24 07:59:57;;;;;;;;;;;23.80;62.60;;;;;;5104341;27;43470;-82
2023/09/24 08:02:23;;;;;;;;;;;23.70;62.90;;;;;;5097435;27;42972;-82
2023/09/24 08:04:48;;;;;;;;;;;23.60;61.70;;;;;;5103121;27;43454;-88
2023/09/24 08:07:14;;;;;;;;;;;23.60;63.00;;;;;;5084534;27;43008;-85
2023/09/24 08:09:40;;;;;;;;;;;23.70;60.10;;;;;;5103708;27;43783;-84
2023/09/24 08:12:06;;;;;;;;;;;23.70;61.20;;;;;;5102899;27;43070;-83
2023/09/24 08:14:33;;;;;;;;;;;23.90;61.30;;;;;;5085388;27;43917;-83
2023/09/24 08:16:58;;;;;;;;;;;23.60;61.60;;;;;;5103783;27;42995;-83
2023/09/24 08:19:30;;;;;;;;;;;23.80;61.00;;;;;;5104019;27;44850;-85
2023/09/24 08:21:56;;;;;;;;;;;23.80;60.00;;;;;;5093186;27;42988;-83
2023/09/24 08:24:22;;;;;;;;;;;23.70;60.00;;;;;;5095765;27;43442;-83
2023/09/24 08:26:48;;;;;;;;;;;23.60;60.50;;;;;;5102661;27;42930;-82
2023/09/24 08:29:14;;;;;;;;;;;23.60;59.40;;;;;;5101326;27;43481;-87
2023/09/24 08:31:39;;;;;;;;;;;23.60;57.90;;;;;;5114286;27;43162;-85
2023/09/24 08:34:05;;;;;;;;;;;23.60;58.10;;;;;;5092676;27;42948;-81
2023/09/24 08:36:31;;;;;;;;;;;23.50;60.00;;;;;;5102214;27;43221;-82
2023/09/24 08:38:57;;;;;;;;;;;23.50;60.30;;;;;;5103823;27;43368;-86
2023/09/24 08:41:22;;;;;;;;;;;23.60;59.50;;;;;;5098832;27;43475;-82
2023/09/24 08:43:48;;;;;;;;;;;23.50;59.10;;;;;;5096020;27;43215;-82
2023/09/24 08:46:14;;;;;;;;;;;23.70;58.20;;;;;;5101142;27;43048;-82
2023/09/24 08:48:40;;;;;;;;;;;23.70;57.60;;;;;;5095836;27;42976;-81
2023/09/24 08:51:07;;;;;;;;;;;23.80;57.10;;;;;;5099240;27;42966;-81
2023/09/24 08:53:34;;;;;;;;;;;23.80;55.00;;;;;;5105283;27;42975;-81
2023/09/24 08:55:59;;;;;;;;;;;23.70;55.60;;;;;;5105815;27;42990;-87
2023/09/24 08:58:25;;;;;;;;;;;23.80;55.30;;;;;;5106347;27;43497;-80
2023/09/24 09:00:51;;;;;;;;;;;23.70;56.50;;;;;;5101285;27;42899;-81
2023/09/24 09:03:18;;;;;;;;;;;24.20;55.60;;;;;;5101614;27;45398;-79
2023/09/24 09:05:44;;;;;;;;;;;23.40;56.60;;;;;;5101205;27;43014;-81
2023/09/24 09:08:10;;;;;;;;;;;23.80;55.80;;;;;;5094418;27;43536;-80
2023/09/24 09:10:36;;;;;;;;;;;21.90;55.20;;;;;;5094584;27;42961;-80
2023/09/24 09:13:09;;;;;;;;;;;24.20;56.70;;;;;;5105579;27;43393;-79
2023/09/24 09:15:35;;;;;;;;;;;23.80;53.50;;;;;;5101749;27;42950;-84
2023/09/24 09:18:02;;;;;;;;;;;23.60;55.40;;;;;;5106474;27;43089;-85
2023/09/24 09:20:37;;;;;;;;;;;23.70;57.20;;;;;;5106374;27;42869;-80
2023/09/24 09:23:03;;;;;;;;;;;23.70;54.40;;;;;;5100979;27;43583;-82
2023/09/24 09:25:28;;;;;;;;;;;23.60;57.00;;;;;;5099784;27;42921;-82
2023/09/24 09:27:54;;;;;;;;;;;23.70;57.60;;;;;;5099397;27;43341;-83
2023/09/24 09:30:20;;;;;;;;;;;23.60;57.80;;;;;;5105292;27;42972;-81
2023/09/24 09:32:46;;;;;;;;;;;23.80;57.50;;;;;;5102939;27;44357;-82
2023/09/24 09:35:14;;;;;;;;;;;23.70;57.90;;;;;;5104070;27;42995;-80
2023/09/24 09:37:40;;;;;;;;;;;23.80;56.90;;;;;;5100699;27;43629;-80
2023/09/24 09:40:09;;;;;;;;;;;23.50;57.40;;;;;;5105944;27;43019;-81
2023/09/24 09:42:35;;;;;;;;;;;23.60;56.10;;;;;;5104366;27;42981;-81
2023/09/24 09:45:08;;;;;;;;;;;23.50;56.10;;;;;;5104603;27;43051;-80
2023/09/24 09:47:36;;;;;;;;;;;23.50;54.50;;;;;;5105782;27;43069;-80
2023/09/24 09:50:02;;;;;;;;;;;23.80;57.50;;;;;;5086903;27;43247;-84
2023/09/24 09:52:32;;;;;;;;;;;23.60;57.50;;;;;;5103414;27;43352;-83
2023/09/24 09:54:59;;;;;;;;;;;23.80;55.40;;;;;;5106515;27;42904;-85
2023/09/24 09:57:25;;;;;;;;;;;23.80;57.40;;;;;;5086935;27;43122;-81
2023/09/24 09:59:52;;;;;;;;;;;23.70;58.40;;;;;;5106379;27;43959;-83
2023/09/24 10:02:18;;;;;;;;;;;23.90;58.70;;;;;;5101289;27;43474;-82
2023/09/24 10:04:44;;;;;;;;;;;23.70;58.70;;;;;;5105097;27;43130;-82
2023/09/24 10:07:10;;;;;;;;;;;23.70;58.10;;;;;;5105796;27;43069;-85
2023/09/24 10:09:37;;;;;;;;;;;23.80;59.10;;;;;;5106576;27;43002;-83
2023/09/24 10:12:07;;;;;;;;;;;23.80;59.20;;;;;;5099736;27;43297;-82
2023/09/24 10:14:36;;;;;;;;;;;23.70;58.40;;;;;;5104548;27;42961;-82
2023/09/24 10:17:23;;;;;;;;;;;23.80;56.40;;;;;;5105486;27;42948;-81
2023/09/24 10:19:55;;;;;;;;;;;23.60;56.70;;;;;;5105957;27;43348;-83
2023/09/24 10:22:24;;;;;;;;;;;23.80;56.50;;;;;;5103938;27;43010;-85
2023/09/24 10:24:50;;;;;;;;;;;23.90;56.40;;;;;;5104776;27;43203;-84
2023/09/24 10:27:19;;;;;;;;;;;23.70;58.00;;;;;;5104959;27;43506;-82
2023/09/24 10:29:45;;;;;;;;;;;23.90;59.20;;;;;;5094012;27;43104;-82
2023/09/24 10:32:14;;;;;;;;;;;23.80;58.80;;;;;;5099401;27;43496;-84
2023/09/24 10:34:55;;;;;;;;;;;24.30;57.00;;;;;;5105247;27;43007;-83
2023/09/24 10:37:28;;;;;;;;;;;23.80;56.00;;;;;;5105182;27;43026;-82
2023/09/24 10:40:04;;;;;;;;;;;23.90;55.70;;;;;;5098985;27;43107;-82
2023/09/24 10:42:30;;;;;;;;;;;23.70;55.40;;;;;;5103753;27;43078;-83
2023/09/24 10:45:08;;;;;;;;;;;23.80;57.20;;;;;;5105302;27;43011;-82
2023/09/24 10:47:40;;;;;;;;;;;23.80;55.50;;;;;;5104195;27;43316;-82
2023/09/24 10:50:24;;;;;;;;;;;23.70;55.90;;;;;;5105667;27;43159;-81
2023/09/24 10:52:53;;;;;;;;;;;23.90;55.90;;;;;;5101083;27;43711;-81
2023/09/24 10:55:19;;;;;;;;;;;23.90;55.60;;;;;;5106337;27;42900;-82
2023/09/24 10:57:46;;;;;;;;;;;23.70;57.90;;;;;;5103257;27;43635;-83
2023/09/24 11:00:17;;;;;;;;;;;23.80;56.90;;;;;;5103689;27;43385;-80
2023/09/24 11:02:43;;;;;;;;;;;23.40;54.80;;;;;;5087615;27;42883;-79
2023/09/24 11:05:09;;;;;;;;;;;23.80;56.80;;;;;;5101700;27;43634;-79
2023/09/24 11:07:35;;;;;;;;;;;24.00;57.40;;;;;;5104453;27;43223;-78
2023/09/24 11:10:00;;;;;;;;;;;24.10;57.90;;;;;;5106816;27;43015;-83
2023/09/24 11:12:26;;;;;;;;;;;23.90;57.80;;;;;;5108706;27;43082;-79
2023/09/24 11:14:54;;;;;;;;;;;23.90;58.40;;;;;;5101193;27;43025;-79
2023/09/24 11:17:20;;;;;;;;;;;23.50;56.10;;;;;;5113560;27;43031;-79
2023/09/24 11:19:47;;;;;;;;;;;23.80;58.60;;;;;;5108340;27;42988;-80
2023/09/24 11:22:19;;;;;;;;;;;24.10;59.10;;;;;;5099364;27;43714;-80
2023/09/24 11:24:45;;;;;;;;;;;23.90;57.20;;;;;;5099626;27;43136;-79
2023/09/24 11:27:11;;;;;;;;;;;23.80;59.50;;;;;;5098825;27;43780;-80
2023/09/24 11:29:36;;;;;;;;;;;23.90;58.50;;;;;;5101907;27;42999;-80
2023/09/24 11:32:02;;;;;;;;;;;23.90;59.10;;;;;;5097950;27;43087;-80
2023/09/24 11:34:29;;;;;;;;;;;24.00;58.60;;;;;;5103181;27;43023;-82
2023/09/24 11:36:55;;;;;;;;;;;23.50;58.40;;;;;;5107608;27;43491;-87
2023/09/24 11:39:21;;;;;;;;;;;23.70;57.80;;;;;;5103000;27;43118;-81
2023/09/24 11:41:46;;;;;;;;;;;24.00;58.00;;;;;;5104285;27;42935;-90
2023/09/24 11:44:12;;;;;;;;;;;23.90;57.80;;;;;;5103947;27;42948;-88
2023/09/24 11:46:38;;;;;;;;;;;24.00;57.90;;;;;;5107873;27;43523;-82
2023/09/24 11:49:04;;;;;;;;;;;23.90;57.00;;;;;;5089205;27;43029;-81
2023/09/24 11:51:30;;;;;;;;;;;24.00;57.00;;;;;;5102176;27;43050;-81
2023/09/24 11:53:56;;;;;;;;;;;23.90;57.90;;;;;;5103302;27;42984;-84
2023/09/24 11:56:22;;;;;;;;;;;23.90;58.00;;;;;;5102157;27;43018;-81
2023/09/24 11:58:48;;;;;;;;;;;23.90;57.40;;;;;;5088450;27;43037;-83
2023/09/24 12:01:14;;;;;;;;;;;23.90;57.60;;;;;;5097781;27;42996;-87
2023/09/24 12:03:39;;;;;;;;;;;23.90;57.20;;;;;;5104445;27;42927;-82
2023/09/24 12:06:05;;;;;;;;;;;24.20;57.20;;;;;;5099650;27;43560;-81
2023/09/24 12:08:31;;;;;;;;;;;23.80;56.90;;;;;;5082769;27;42957;-82
2023/09/24 12:10:56;;;;;;;;;;;23.90;57.00;;;;;;5101711;27;43034;-81
2023/09/24 12:13:22;;;;;;;;;;;23.90;57.50;;;;;;5101914;27;43042;-80
2023/09/24 12:15:48;;;;;;;;;;;24.00;57.90;;;;;;5093487;27;43397;-84
2023/09/24 12:18:13;;;;;;;;;;;24.00;56.60;;;;;;5095884;27;43288;-81
2023/09/24 12:20:40;;;;;;;;;;;24.00;57.10;;;;;;5101047;27;43612;-85
2023/09/24 12:23:07;;;;;;;;;;;23.90;57.30;;;;;;5105993;27;43018;-82
2023/09/24 12:25:36;;;;;;;;;;;24.00;57.30;;;;;;5099007;27;44617;-82
2023/09/24 12:28:06;;;;;;;;;;;24.10;57.70;;;;;;5097631;27;43053;-82
2023/09/24 12:30:32;;;;;;;;;;;23.90;55.90;;;;;;5096919;27;43853;-81
2023/09/24 12:32:58;;;;;;;;;;;24.00;59.30;;;;;;5105008;27;43021;-81
2023/09/24 12:35:26;;;;;;;;;;;23.90;60.20;;;;;;5101835;27;43579;-81
2023/09/24 12:37:54;;;;;;;;;;;24.00;59.10;;;;;;5105661;27;43019;-80
2023/09/24 12:40:23;;;;;;;;;;;24.00;58.50;;;;;;5105863;27;43070;-80
2023/09/24 12:42:49;;;;;;;;;;;24.20;59.70;;;;;;5104862;27;42959;-81
2023/09/24 12:45:14;;;;;;;;;;;24.00;59.60;;;;;;5106792;27;42853;-81
2023/09/24 12:47:40;;;;;;;;;;;24.00;59.70;;;;;;5106500;27;43186;-81
2023/09/24 12:50:07;;;;;;;;;;;24.00;59.80;;;;;;5106798;27;43036;-81
2023/09/24 12:52:34;;;;;;;;;;;24.00;59.00;;;;;;5103039;27;42917;-80
2023/09/24 12:55:03;;;;;;;;;;;23.90;59.60;;;;;;5105240;27;42933;-82
2023/09/24 12:57:29;;;;;;;;;;;24.00;59.00;;;;;;5105794;27;42963;-80
2023/09/24 12:59:55;;;;;;;;;;;24.20;59.60;;;;;;5106806;27;43490;-80
2023/09/24 13:02:21;;;;;;;;;;;23.50;58.40;;;;;;5104446;27;44850;-81
2023/09/24 13:04:46;;;;;;;;;;;23.80;59.40;;;;;;5106405;27;42889;-81
2023/09/24 13:07:12;;;;;;;;;;;24.10;58.60;;;;;;5105848;27;43099;-80
2023/09/24 13:09:37;;;;;;;;;;;23.90;58.60;;;;;;5097273;27;43501;-81
2023/09/24 13:12:03;;;;;;;;;;;23.80;58.90;;;;;;5098847;27;42960;-81
2023/09/24 13:14:30;;;;;;;;;;;24.00;59.30;;;;;;5104676;27;42923;-81
2023/09/24 13:16:56;;;;;;;;;;;24.20;58.90;;;;;;5105411;27;43063;-80
2023/09/24 13:19:22;;;;;;;;;;;24.70;59.60;;;;;;5105163;27;44111;-80
2023/09/24 13:21:47;;;;;;;;;;;24.10;59.00;;;;;;5105902;27;42916;-80
2023/09/24 13:24:13;;;;;;;;;;;24.00;58.50;;;;;;5105648;27;43771;-80
2023/09/24 13:26:39;;;;;;;;;;;24.00;58.50;;;;;;5103223;27;43189;-81
2023/09/24 13:29:05;;;;;;;;;;;24.00;57.90;;;;;;5100666;27;43704;-81
2023/09/24 13:31:31;;;;;;;;;;;24.00;58.70;;;;;;5103783;27;43158;-81
2023/09/24 13:33:57;;;;;;;;;;;24.10;58.00;;;;;;5104804;27;42923;-80
2023/09/24 13:36:22;;;;;;;;;;;24.10;57.70;;;;;;5103673;27;43000;-83
2023/09/24 13:38:50;;;;;;;;;;;24.00;57.00;;;;;;5105084;27;43034;-81
2023/09/24 13:41:16;;;;;;;;;;;24.00;55.60;;;;;;5103428;27;43027;-83
2023/09/24 13:43:42;;;;;;;;;;;24.00;57.60;;;;;;5106093;27;43042;-83
2023/09/24 13:46:07;;;;;;;;;;;24.10;57.60;;;;;;5101539;27;43037;-81
2023/09/24 13:48:33;;;;;;;;;;;24.00;56.60;;;;;;5101897;27;43578;-80
2023/09/24 13:50:58;;;;;;;;;;;23.90;57.00;;;;;;5105174;27;43006;-81
2023/09/24 13:53:24;;;;;;;;;;;23.90;56.80;;;;;;5105330;27;42942;-82
2023/09/24 13:55:50;;;;;;;;;;;24.00;57.00;;;;;;5105880;27;43079;-81
2023/09/24 13:58:15;;;;;;;;;;;23.90;57.20;;;;;;5106190;27;43004;-81
2023/09/24 14:00:51;;;;;;;;;;;23.80;57.00;;;;;;5105885;27;42897;-81
2023/09/24 14:03:23;;;;;;;;;;;23.90;55.20;;;;;;5088721;27;43706;-80
2023/09/24 14:05:55;;;;;;;;;;;24.30;55.30;;;;;;5087702;27;43009;-81
2023/09/24 14:13:49;;;;;;;;;;;24.00;54.80;;;;;;5097350;27;43299;-82
2023/09/24 14:16:14;;;;;;;;;;;24.00;56.50;;;;;;5105881;27;42955;-81
2023/09/24 14:18:40;;;;;;;;;;;24.10;56.00;;;;;;5105972;27;43045;-81